sensor_id;sensor_type;location;lat;lon;timestamp;P1;durP1;ratioP1;P2;durP2;ratioP2
14094;SDS011;18096;48.142;16.290;2022-07-23T00:00:45;5.97;;;4.17;;
14094;SDS011;18096;48.142;16.290;2022-07-23T00:03:12;5.10;;;4.57;;
14094;SDS011;18096;48.142;16.290;2022-07-23T00:05:37;12.45;;;4.53;;
14094;SDS011;18096;48.142;16.290;2022-07-23T00:08:03;4.47;;;4.17;;
14094;SDS011;18096;48.142;16.290;2022-07-23T00:10:30;6.68;;;3.63;;
14094;SDS011;18096;48.142;16.290;2022-07-23T00:12:56;6.00;;;4.60;;
14094;SDS011;18096;48.142;16.290;2022-07-23T00:15:22;4.15;;;3.92;;
14094;SDS011;18096;48.142;16.290;2022-07-23T00:17:47;5.13;;;4.70;;
14094;SDS011;18096;48.142;16.290;2022-07-23T00:20:13;4.82;;;4.43;;
14094;SDS011;18096;48.142;16.290;2022-07-23T00:22:46;4.53;;;4.13;;
14094;SDS011;18096;48.142;16.290;2022-07-23T00:25:15;4.85;;;4.50;;
14094;SDS011;18096;48.142;16.290;2022-07-23T00:27:41;5.40;;;4.90;;
14094;SDS011;18096;48.142;16.290;2022-07-23T00:30:07;6.63;;;4.95;;
14094;SDS011;18096;48.142;16.290;2022-07-23T00:35:13;4.95;;;4.45;;
14094;SDS011;18096;48.142;16.290;2022-07-23T00:37:39;4.90;;;4.40;;
14094;SDS011;18096;48.142;16.290;2022-07-23T00:40:05;5.27;;;4.77;;
14094;SDS011;18096;48.142;16.290;2022-07-23T00:42:31;5.20;;;4.30;;
14094;SDS011;18096;48.142;16.290;2022-07-23T00:44:57;5.00;;;3.80;;
14094;SDS011;18096;48.142;16.290;2022-07-23T00:47:23;4.22;;;3.92;;
14094;SDS011;18096;48.142;16.290;2022-07-23T00:49:49;4.57;;;4.17;;
14094;SDS011;18096;48.142;16.290;2022-07-23T00:52:14;4.95;;;3.63;;
14094;SDS011;18096;48.142;16.290;2022-07-23T00:54:40;4.63;;;4.33;;
14094;SDS011;18096;48.142;16.290;2022-07-23T00:57:06;6.00;;;5.30;;
14094;SDS011;18096;48.142;16.290;2022-07-23T00:59:33;4.13;;;3.73;;
14094;SDS011;18096;48.142;16.290;2022-07-23T01:01:58;5.22;;;4.80;;
14094;SDS011;18096;48.142;16.290;2022-07-23T01:04:24;4.80;;;4.10;;
14094;SDS011;18096;48.142;16.290;2022-07-23T01:06:50;10.43;;;3.63;;
14094;SDS011;18096;48.142;16.290;2022-07-23T01:09:15;4.65;;;3.88;;
14094;SDS011;18096;48.142;16.290;2022-07-23T01:11:41;3.70;;;3.50;;
14094;SDS011;18096;48.142;16.290;2022-07-23T01:14:17;4.53;;;3.22;;
14094;SDS011;18096;48.142;16.290;2022-07-23T01:16:45;4.35;;;3.70;;
14094;SDS011;18096;48.142;16.290;2022-07-23T01:19:11;8.30;;;3.90;;
14094;SDS011;18096;48.142;16.290;2022-07-23T01:21:42;4.13;;;3.80;;
14094;SDS011;18096;48.142;16.290;2022-07-23T01:24:10;5.30;;;3.97;;
14094;SDS011;18096;48.142;16.290;2022-07-23T01:26:37;4.20;;;3.90;;
14094;SDS011;18096;48.142;16.290;2022-07-23T01:29:03;4.20;;;3.80;;
14094;SDS011;18096;48.142;16.290;2022-07-23T01:31:29;4.68;;;3.72;;
14094;SDS011;18096;48.142;16.290;2022-07-23T01:33:55;4.00;;;3.70;;
14094;SDS011;18096;48.142;16.290;2022-07-23T01:36:21;4.60;;;4.30;;
14094;SDS011;18096;48.142;16.290;2022-07-23T01:38:47;4.00;;;3.67;;
14094;SDS011;18096;48.142;16.290;2022-07-23T01:41:14;4.40;;;3.78;;
14094;SDS011;18096;48.142;16.290;2022-07-23T01:43:40;6.30;;;4.55;;
14094;SDS011;18096;48.142;16.290;2022-07-23T01:46:06;5.43;;;4.60;;
14094;SDS011;18096;48.142;16.290;2022-07-23T01:48:31;5.40;;;5.00;;
14094;SDS011;18096;48.142;16.290;2022-07-23T01:50:57;4.70;;;4.40;;
14094;SDS011;18096;48.142;16.290;2022-07-23T01:53:23;5.10;;;4.60;;
14094;SDS011;18096;48.142;16.290;2022-07-23T01:55:48;5.22;;;4.82;;
14094;SDS011;18096;48.142;16.290;2022-07-23T01:58:14;6.60;;;5.43;;
14094;SDS011;18096;48.142;16.290;2022-07-23T02:00:40;6.20;;;5.43;;
14094;SDS011;18096;48.142;16.290;2022-07-23T02:03:05;10.38;;;5.00;;
14094;SDS011;18096;48.142;16.290;2022-07-23T02:05:31;6.80;;;4.93;;
14094;SDS011;18096;48.142;16.290;2022-07-23T02:07:57;6.07;;;5.63;;
14094;SDS011;18096;48.142;16.290;2022-07-23T02:10:24;4.88;;;4.47;;
14094;SDS011;18096;48.142;16.290;2022-07-23T02:12:50;6.60;;;6.00;;
14094;SDS011;18096;48.142;16.290;2022-07-23T02:15:15;6.20;;;4.93;;
14094;SDS011;18096;48.142;16.290;2022-07-23T02:17:41;5.73;;;5.27;;
14094;SDS011;18096;48.142;16.290;2022-07-23T02:20:07;5.50;;;5.10;;
14094;SDS011;18096;48.142;16.290;2022-07-23T02:22:34;6.32;;;5.80;;
14094;SDS011;18096;48.142;16.290;2022-07-23T02:25:01;5.28;;;4.97;;
14094;SDS011;18096;48.142;16.290;2022-07-23T02:27:28;5.97;;;5.38;;
14094;SDS011;18096;48.142;16.290;2022-07-23T02:29:53;6.20;;;5.70;;
14094;SDS011;18096;48.142;16.290;2022-07-23T02:32:19;11.53;;;6.40;;
14094;SDS011;18096;48.142;16.290;2022-07-23T02:34:46;6.88;;;6.28;;
14094;SDS011;18096;48.142;16.290;2022-07-23T02:37:12;6.30;;;5.50;;
14094;SDS011;18096;48.142;16.290;2022-07-23T02:39:38;6.50;;;5.80;;
14094;SDS011;18096;48.142;16.290;2022-07-23T02:42:04;8.00;;;5.23;;
14094;SDS011;18096;48.142;16.290;2022-07-23T02:44:30;5.90;;;5.38;;
14094;SDS011;18096;48.142;16.290;2022-07-23T02:46:55;6.20;;;5.63;;
14094;SDS011;18096;48.142;16.290;2022-07-23T02:49:21;6.67;;;5.67;;
14094;SDS011;18096;48.142;16.290;2022-07-23T02:51:46;6.50;;;5.80;;
14094;SDS011;18096;48.142;16.290;2022-07-23T02:54:12;6.25;;;5.72;;
14094;SDS011;18096;48.142;16.290;2022-07-23T02:56:38;6.00;;;5.40;;
14094;SDS011;18096;48.142;16.290;2022-07-23T02:59:03;6.28;;;5.68;;
14094;SDS011;18096;48.142;16.290;2022-07-23T03:01:29;6.75;;;5.60;;
14094;SDS011;18096;48.142;16.290;2022-07-23T03:03:54;6.00;;;5.40;;
14094;SDS011;18096;48.142;16.290;2022-07-23T03:06:20;5.53;;;5.13;;
14094;SDS011;18096;48.142;16.290;2022-07-23T03:08:46;6.35;;;5.82;;
14094;SDS011;18096;48.142;16.290;2022-07-23T03:11:11;5.87;;;5.17;;
14094;SDS011;18096;48.142;16.290;2022-07-23T03:13:37;6.72;;;6.00;;
14094;SDS011;18096;48.142;16.290;2022-07-23T03:16:04;7.35;;;5.18;;
14094;SDS011;18096;48.142;16.290;2022-07-23T03:18:30;5.45;;;5.03;;
14094;SDS011;18096;48.142;16.290;2022-07-23T03:20:56;5.90;;;5.43;;
14094;SDS011;18096;48.142;16.290;2022-07-23T03:23:21;5.65;;;5.25;;
14094;SDS011;18096;48.142;16.290;2022-07-23T03:25:47;6.00;;;5.50;;
14094;SDS011;18096;48.142;16.290;2022-07-23T03:28:13;5.75;;;4.97;;
14094;SDS011;18096;48.142;16.290;2022-07-23T03:30:40;6.22;;;5.72;;
14094;SDS011;18096;48.142;16.290;2022-07-23T03:33:07;11.55;;;4.88;;
14094;SDS011;18096;48.142;16.290;2022-07-23T03:35:33;6.00;;;5.40;;
14094;SDS011;18096;48.142;16.290;2022-07-23T03:37:58;6.57;;;5.97;;
14094;SDS011;18096;48.142;16.290;2022-07-23T03:40:24;5.75;;;5.43;;
14094;SDS011;18096;48.142;16.290;2022-07-23T03:42:50;9.63;;;5.72;;
14094;SDS011;18096;48.142;16.290;2022-07-23T03:45:15;5.00;;;4.70;;
14094;SDS011;18096;48.142;16.290;2022-07-23T03:47:41;6.57;;;5.97;;
14094;SDS011;18096;48.142;16.290;2022-07-23T03:50:08;5.90;;;5.30;;
14094;SDS011;18096;48.142;16.290;2022-07-23T03:52:34;6.80;;;5.70;;
14094;SDS011;18096;48.142;16.290;2022-07-23T03:54:59;5.77;;;5.27;;
14094;SDS011;18096;48.142;16.290;2022-07-23T03:57:25;6.10;;;5.60;;
14094;SDS011;18096;48.142;16.290;2022-07-23T03:59:51;5.90;;;5.30;;
14094;SDS011;18096;48.142;16.290;2022-07-23T04:02:16;6.37;;;5.77;;
14094;SDS011;18096;48.142;16.290;2022-07-23T04:04:42;6.90;;;6.40;;
14094;SDS011;18096;48.142;16.290;2022-07-23T04:07:07;19.40;;;5.40;;
14094;SDS011;18096;48.142;16.290;2022-07-23T04:09:33;11.17;;;6.00;;
14094;SDS011;18096;48.142;16.290;2022-07-23T04:11:59;6.00;;;5.40;;
14094;SDS011;18096;48.142;16.290;2022-07-23T04:14:24;6.25;;;5.68;;
14094;SDS011;18096;48.142;16.290;2022-07-23T04:16:50;5.87;;;5.43;;
14094;SDS011;18096;48.142;16.290;2022-07-23T04:19:15;6.80;;;6.20;;
14094;SDS011;18096;48.142;16.290;2022-07-23T04:21:41;5.20;;;4.80;;
14094;SDS011;18096;48.142;16.290;2022-07-23T04:24:07;6.20;;;5.60;;
14094;SDS011;18096;48.142;16.290;2022-07-23T04:26:32;6.60;;;6.07;;
14094;SDS011;18096;48.142;16.290;2022-07-23T04:28:58;6.17;;;5.63;;
14094;SDS011;18096;48.142;16.290;2022-07-23T04:31:24;6.38;;;5.13;;
14094;SDS011;18096;48.142;16.290;2022-07-23T04:33:49;7.10;;;5.93;;
14094;SDS011;18096;48.142;16.290;2022-07-23T04:36:15;5.80;;;5.40;;
14094;SDS011;18096;48.142;16.290;2022-07-23T04:38:40;5.82;;;5.22;;
14094;SDS011;18096;48.142;16.290;2022-07-23T04:41:06;9.15;;;5.80;;
14094;SDS011;18096;48.142;16.290;2022-07-23T04:43:32;5.73;;;4.87;;
14094;SDS011;18096;48.142;16.290;2022-07-23T04:45:57;5.43;;;5.13;;
14094;SDS011;18096;48.142;16.290;2022-07-23T04:48:23;5.30;;;4.90;;
14094;SDS011;18096;48.142;16.290;2022-07-23T04:50:49;5.87;;;4.70;;
14094;SDS011;18096;48.142;16.290;2022-07-23T04:53:14;6.50;;;5.43;;
14094;SDS011;18096;48.142;16.290;2022-07-23T04:55:40;5.70;;;5.20;;
14094;SDS011;18096;48.142;16.290;2022-07-23T04:58:05;6.70;;;5.53;;
14094;SDS011;18096;48.142;16.290;2022-07-23T05:00:31;5.80;;;5.30;;
14094;SDS011;18096;48.142;16.290;2022-07-23T05:02:57;7.77;;;6.20;;
14094;SDS011;18096;48.142;16.290;2022-07-23T05:05:22;5.10;;;4.70;;
14094;SDS011;18096;48.142;16.290;2022-07-23T05:07:48;4.75;;;4.45;;
14094;SDS011;18096;48.142;16.290;2022-07-23T05:10:14;4.40;;;4.20;;
14094;SDS011;18096;48.142;16.290;2022-07-23T05:12:39;5.50;;;5.00;;
14094;SDS011;18096;48.142;16.290;2022-07-23T05:15:05;7.68;;;5.10;;
14094;SDS011;18096;48.142;16.290;2022-07-23T05:17:31;5.17;;;4.77;;
14094;SDS011;18096;48.142;16.290;2022-07-23T05:19:56;4.38;;;4.07;;
14094;SDS011;18096;48.142;16.290;2022-07-23T05:22:22;4.50;;;4.20;;
14094;SDS011;18096;48.142;16.290;2022-07-23T05:24:47;4.30;;;4.00;;
14094;SDS011;18096;48.142;16.290;2022-07-23T05:27:13;3.67;;;3.47;;
14094;SDS011;18096;48.142;16.290;2022-07-23T05:29:39;7.55;;;4.32;;
14094;SDS011;18096;48.142;16.290;2022-07-23T05:32:04;6.30;;;4.10;;
14094;SDS011;18096;48.142;16.290;2022-07-23T05:34:30;4.20;;;3.80;;
14094;SDS011;18096;48.142;16.290;2022-07-23T05:36:56;4.30;;;3.73;;
14094;SDS011;18096;48.142;16.290;2022-07-23T05:39:21;3.87;;;3.57;;
14094;SDS011;18096;48.142;16.290;2022-07-23T05:41:47;3.83;;;3.53;;
14094;SDS011;18096;48.142;16.290;2022-07-23T05:44:13;3.50;;;3.20;;
14094;SDS011;18096;48.142;16.290;2022-07-23T05:46:38;3.23;;;2.93;;
14094;SDS011;18096;48.142;16.290;2022-07-23T05:49:04;3.60;;;3.00;;
14094;SDS011;18096;48.142;16.290;2022-07-23T05:51:29;2.77;;;2.57;;
14094;SDS011;18096;48.142;16.290;2022-07-23T05:53:55;5.53;;;3.40;;
14094;SDS011;18096;48.142;16.290;2022-07-23T05:56:21;3.30;;;3.00;;
14094;SDS011;18096;48.142;16.290;2022-07-23T05:58:46;12.30;;;3.00;;
14094;SDS011;18096;48.142;16.290;2022-07-23T06:01:12;3.07;;;2.87;;
14094;SDS011;18096;48.142;16.290;2022-07-23T06:03:38;3.78;;;3.47;;
14094;SDS011;18096;48.142;16.290;2022-07-23T06:06:04;3.43;;;3.23;;
14094;SDS011;18096;48.142;16.290;2022-07-23T06:08:30;3.13;;;2.92;;
14094;SDS011;18096;48.142;16.290;2022-07-23T06:10:56;3.40;;;3.20;;
14094;SDS011;18096;48.142;16.290;2022-07-23T06:13:21;4.13;;;3.40;;
14094;SDS011;18096;48.142;16.290;2022-07-23T06:15:47;3.37;;;3.13;;
14094;SDS011;18096;48.142;16.290;2022-07-23T06:18:13;5.57;;;3.35;;
14094;SDS011;18096;48.142;16.290;2022-07-23T06:20:39;7.15;;;3.30;;
14094;SDS011;18096;48.142;16.290;2022-07-23T06:23:04;3.75;;;3.53;;
14094;SDS011;18096;48.142;16.290;2022-07-23T06:25:30;4.30;;;3.90;;
14094;SDS011;18096;48.142;16.290;2022-07-23T06:27:56;4.40;;;4.00;;
14094;SDS011;18096;48.142;16.290;2022-07-23T06:30:21;8.65;;;4.10;;
14094;SDS011;18096;48.142;16.290;2022-07-23T06:32:47;3.10;;;2.80;;
14094;SDS011;18096;48.142;16.290;2022-07-23T06:35:13;3.40;;;3.20;;
14094;SDS011;18096;48.142;16.290;2022-07-23T06:37:38;4.00;;;3.30;;
14094;SDS011;18096;48.142;16.290;2022-07-23T06:40:04;5.90;;;2.80;;
14094;SDS011;18096;48.142;16.290;2022-07-23T06:42:30;3.40;;;2.83;;
14094;SDS011;18096;48.142;16.290;2022-07-23T06:44:56;3.28;;;2.97;;
14094;SDS011;18096;48.142;16.290;2022-07-23T06:47:22;3.08;;;2.97;;
14094;SDS011;18096;48.142;16.290;2022-07-23T06:49:47;3.57;;;3.30;;
14094;SDS011;18096;48.142;16.290;2022-07-23T06:52:13;3.30;;;3.10;;
14094;SDS011;18096;48.142;16.290;2022-07-23T06:54:39;3.03;;;2.80;;
14094;SDS011;18096;48.142;16.290;2022-07-23T06:57:04;3.07;;;2.97;;
14094;SDS011;18096;48.142;16.290;2022-07-23T06:59:30;3.47;;;3.28;;
14094;SDS011;18096;48.142;16.290;2022-07-23T07:01:56;3.72;;;3.38;;
14094;SDS011;18096;48.142;16.290;2022-07-23T07:04:23;3.60;;;2.88;;
14094;SDS011;18096;48.142;16.290;2022-07-23T07:06:48;3.37;;;3.07;;
14094;SDS011;18096;48.142;16.290;2022-07-23T07:09:14;4.30;;;2.10;;
14094;SDS011;18096;48.142;16.290;2022-07-23T07:11:40;2.20;;;2.10;;
14094;SDS011;18096;48.142;16.290;2022-07-23T07:14:05;3.63;;;3.07;;
14094;SDS011;18096;48.142;16.290;2022-07-23T07:16:31;2.47;;;2.15;;
14094;SDS011;18096;48.142;16.290;2022-07-23T07:18:57;2.70;;;2.50;;
14094;SDS011;18096;48.142;16.290;2022-07-23T07:21:23;2.20;;;2.10;;
14094;SDS011;18096;48.142;16.290;2022-07-23T07:23:48;2.38;;;2.17;;
14094;SDS011;18096;48.142;16.290;2022-07-23T07:26:14;2.70;;;2.50;;
14094;SDS011;18096;48.142;16.290;2022-07-23T07:28:39;2.17;;;2.07;;
14094;SDS011;18096;48.142;16.290;2022-07-23T07:31:05;2.20;;;2.10;;
14094;SDS011;18096;48.142;16.290;2022-07-23T07:33:31;2.60;;;2.50;;
14094;SDS011;18096;48.142;16.290;2022-07-23T07:35:57;2.90;;;2.70;;
14094;SDS011;18096;48.142;16.290;2022-07-23T07:38:23;3.00;;;2.30;;
14094;SDS011;18096;48.142;16.290;2022-07-23T07:40:49;2.63;;;2.53;;
14094;SDS011;18096;48.142;16.290;2022-07-23T07:43:14;2.60;;;2.40;;
14094;SDS011;18096;48.142;16.290;2022-07-23T07:45:40;3.57;;;2.47;;
14094;SDS011;18096;48.142;16.290;2022-07-23T07:48:06;2.35;;;2.15;;
14094;SDS011;18096;48.142;16.290;2022-07-23T07:50:32;2.00;;;1.90;;
14094;SDS011;18096;48.142;16.290;2022-07-23T07:52:57;2.33;;;2.08;;
14094;SDS011;18096;48.142;16.290;2022-07-23T07:55:23;2.25;;;2.15;;
14094;SDS011;18096;48.142;16.290;2022-07-23T07:57:48;1.67;;;1.67;;
14094;SDS011;18096;48.142;16.290;2022-07-23T08:00:14;2.20;;;1.87;;
14094;SDS011;18096;48.142;16.290;2022-07-23T08:02:44;2.42;;;2.22;;
14094;SDS011;18096;48.142;16.290;2022-07-23T08:05:12;2.50;;;2.40;;
14094;SDS011;18096;48.142;16.290;2022-07-23T08:07:38;5.18;;;1.98;;
14094;SDS011;18096;48.142;16.290;2022-07-23T08:10:05;2.27;;;2.17;;
14094;SDS011;18096;48.142;16.290;2022-07-23T08:12:42;1.90;;;1.80;;
14094;SDS011;18096;48.142;16.290;2022-07-23T08:15:09;6.50;;;2.30;;
14094;SDS011;18096;48.142;16.290;2022-07-23T08:17:35;1.83;;;1.73;;
14094;SDS011;18096;48.142;16.290;2022-07-23T08:20:01;2.50;;;2.30;;
14094;SDS011;18096;48.142;16.290;2022-07-23T08:22:41;2.45;;;2.25;;
14094;SDS011;18096;48.142;16.290;2022-07-23T08:25:13;2.47;;;2.27;;
14094;SDS011;18096;48.142;16.290;2022-07-23T08:27:39;2.17;;;2.08;;
14094;SDS011;18096;48.142;16.290;2022-07-23T08:30:05;2.90;;;2.53;;
14094;SDS011;18096;48.142;16.290;2022-07-23T08:32:32;3.45;;;2.28;;
14094;SDS011;18096;48.142;16.290;2022-07-23T08:34:58;2.80;;;2.60;;
14094;SDS011;18096;48.142;16.290;2022-07-23T08:37:23;2.57;;;2.37;;
14094;SDS011;18096;48.142;16.290;2022-07-23T08:39:49;3.10;;;2.70;;
14094;SDS011;18096;48.142;16.290;2022-07-23T08:42:14;3.83;;;2.58;;
14094;SDS011;18096;48.142;16.290;2022-07-23T08:44:41;3.25;;;2.95;;
14094;SDS011;18096;48.142;16.290;2022-07-23T08:47:13;2.75;;;2.55;;
14094;SDS011;18096;48.142;16.290;2022-07-23T08:49:40;2.60;;;2.50;;
14094;SDS011;18096;48.142;16.290;2022-07-23T08:52:06;2.88;;;2.75;;
14094;SDS011;18096;48.142;16.290;2022-07-23T08:54:32;2.63;;;2.53;;
14094;SDS011;18096;48.142;16.290;2022-07-23T08:56:59;5.03;;;3.20;;
14094;SDS011;18096;48.142;16.290;2022-07-23T08:59:25;3.78;;;2.30;;
14094;SDS011;18096;48.142;16.290;2022-07-23T09:01:51;2.50;;;2.40;;
14094;SDS011;18096;48.142;16.290;2022-07-23T09:04:17;4.50;;;3.30;;
14094;SDS011;18096;48.142;16.290;2022-07-23T09:06:43;6.10;;;3.37;;
14094;SDS011;18096;48.142;16.290;2022-07-23T09:09:18;3.10;;;2.60;;
14094;SDS011;18096;48.142;16.290;2022-07-23T09:11:46;2.70;;;2.55;;
14094;SDS011;18096;48.142;16.290;2022-07-23T09:14:12;2.87;;;2.67;;
14094;SDS011;18096;48.142;16.290;2022-07-23T09:16:38;2.80;;;2.60;;
14094;SDS011;18096;48.142;16.290;2022-07-23T09:19:04;2.80;;;2.60;;
14094;SDS011;18096;48.142;16.290;2022-07-23T09:21:35;4.60;;;2.40;;
14094;SDS011;18096;48.142;16.290;2022-07-23T09:26:44;2.83;;;2.63;;
14094;SDS011;18096;48.142;16.290;2022-07-23T09:31:51;2.83;;;2.72;;
14094;SDS011;18096;48.142;16.290;2022-07-23T09:34:19;2.85;;;2.65;;
14094;SDS011;18096;48.142;16.290;2022-07-23T09:36:50;2.50;;;2.40;;
14094;SDS011;18096;48.142;16.290;2022-07-23T09:39:42;2.90;;;2.70;;
14094;SDS011;18096;48.142;16.290;2022-07-23T09:42:19;2.20;;;2.10;;
14094;SDS011;18096;48.142;16.290;2022-07-23T09:44:50;3.30;;;3.20;;
14094;SDS011;18096;48.142;16.290;2022-07-23T09:47:18;5.30;;;2.97;;
14094;SDS011;18096;48.142;16.290;2022-07-23T09:50:04;3.00;;;2.80;;
14094;SDS011;18096;48.142;16.290;2022-07-23T09:52:32;3.70;;;3.40;;
14094;SDS011;18096;48.142;16.290;2022-07-23T09:55:00;3.80;;;3.40;;
14094;SDS011;18096;48.142;16.290;2022-07-23T09:57:28;3.03;;;2.83;;
14094;SDS011;18096;48.142;16.290;2022-07-23T09:59:56;2.97;;;2.77;;
14094;SDS011;18096;48.142;16.290;2022-07-23T10:02:24;3.38;;;3.10;;
14094;SDS011;18096;48.142;16.290;2022-07-23T10:04:50;3.93;;;3.30;;
14094;SDS011;18096;48.142;16.290;2022-07-23T10:07:18;3.60;;;3.30;;
14094;SDS011;18096;48.142;16.290;2022-07-23T10:09:48;3.28;;;2.97;;
14094;SDS011;18096;48.142;16.290;2022-07-23T10:12:15;4.72;;;2.90;;
14094;SDS011;18096;48.142;16.290;2022-07-23T10:14:59;2.88;;;2.67;;
14094;SDS011;18096;48.142;16.290;2022-07-23T10:17:27;2.80;;;2.60;;
14094;SDS011;18096;48.142;16.290;2022-07-23T10:19:53;4.20;;;3.65;;
14094;SDS011;18096;48.142;16.290;2022-07-23T10:22:20;5.22;;;3.35;;
14094;SDS011;18096;48.142;16.290;2022-07-23T10:37:01;3.10;;;2.90;;
14094;SDS011;18096;48.142;16.290;2022-07-23T10:39:35;4.18;;;3.40;;
14094;SDS011;18096;48.142;16.290;2022-07-23T10:42:12;5.50;;;3.40;;
14094;SDS011;18096;48.142;16.290;2022-07-23T10:44:40;3.80;;;3.50;;
14094;SDS011;18096;48.142;16.290;2022-07-23T10:47:11;4.72;;;2.83;;
14094;SDS011;18096;48.142;16.290;2022-07-23T10:49:37;5.82;;;3.35;;
14094;SDS011;18096;48.142;16.290;2022-07-23T10:57:48;4.25;;;3.95;;
14094;SDS011;18096;48.142;16.290;2022-07-23T11:00:25;4.00;;;3.60;;
14094;SDS011;18096;48.142;16.290;2022-07-23T11:02:56;3.60;;;3.30;;
14094;SDS011;18096;48.142;16.290;2022-07-23T11:05:38;4.22;;;3.83;;
14094;SDS011;18096;48.142;16.290;2022-07-23T11:08:12;2.38;;;2.28;;
14094;SDS011;18096;48.142;16.290;2022-07-23T11:10:43;3.80;;;3.40;;
14094;SDS011;18096;48.142;16.290;2022-07-23T11:16:30;3.85;;;3.42;;
14094;SDS011;18096;48.142;16.290;2022-07-23T11:31:57;3.47;;;3.13;;
14094;SDS011;18096;48.142;16.290;2022-07-23T11:34:32;4.10;;;2.60;;
14094;SDS011;18096;48.142;16.290;2022-07-23T11:37:00;13.40;;;3.53;;
14094;SDS011;18096;48.142;16.290;2022-07-23T11:39:28;4.40;;;3.15;;
14094;SDS011;18096;48.142;16.290;2022-07-23T11:41:55;4.05;;;3.65;;
14094;SDS011;18096;48.142;16.290;2022-07-23T11:44:31;4.10;;;3.80;;
14094;SDS011;18096;48.142;16.290;2022-07-23T11:47:10;3.95;;;3.75;;
14094;SDS011;18096;48.142;16.290;2022-07-23T11:49:39;3.78;;;3.45;;
14094;SDS011;18096;48.142;16.290;2022-07-23T11:52:17;4.40;;;4.00;;
14094;SDS011;18096;48.142;16.290;2022-07-23T11:54:50;6.10;;;3.80;;
14094;SDS011;18096;48.142;16.290;2022-07-23T11:57:35;4.72;;;4.32;;
14094;SDS011;18096;48.142;16.290;2022-07-23T12:00:08;3.70;;;3.50;;
14094;SDS011;18096;48.142;16.290;2022-07-23T12:02:39;4.25;;;3.95;;
14094;SDS011;18096;48.142;16.290;2022-07-23T12:05:06;3.80;;;3.58;;
14094;SDS011;18096;48.142;16.290;2022-07-23T12:07:41;3.50;;;3.20;;
14094;SDS011;18096;48.142;16.290;2022-07-23T12:10:16;3.40;;;2.83;;
14094;SDS011;18096;48.142;16.290;2022-07-23T12:12:48;3.63;;;3.42;;
14094;SDS011;18096;48.142;16.290;2022-07-23T12:15:16;3.75;;;3.45;;
14094;SDS011;18096;48.142;16.290;2022-07-23T12:17:46;5.68;;;3.70;;
14094;SDS011;18096;48.142;16.290;2022-07-23T12:20:13;2.90;;;2.70;;
14094;SDS011;18096;48.142;16.290;2022-07-23T12:22:51;5.85;;;3.13;;
14094;SDS011;18096;48.142;16.290;2022-07-23T12:25:21;5.80;;;3.37;;
14094;SDS011;18096;48.142;16.290;2022-07-23T12:30:25;3.25;;;3.03;;
14094;SDS011;18096;48.142;16.290;2022-07-23T12:32:53;3.13;;;2.92;;
14094;SDS011;18096;48.142;16.290;2022-07-23T12:35:20;3.60;;;2.60;;
14094;SDS011;18096;48.142;16.290;2022-07-23T12:37:48;3.00;;;2.80;;
14094;SDS011;18096;48.142;16.290;2022-07-23T12:43:03;4.05;;;2.90;;
14094;SDS011;18096;48.142;16.290;2022-07-23T12:45:44;3.10;;;2.80;;
14094;SDS011;18096;48.142;16.290;2022-07-23T12:48:19;2.17;;;2.08;;
14094;SDS011;18096;48.142;16.290;2022-07-23T12:50:54;4.20;;;2.80;;
14094;SDS011;18096;48.142;16.290;2022-07-23T12:53:26;3.03;;;2.83;;
14094;SDS011;18096;48.142;16.290;2022-07-23T12:56:10;2.40;;;2.30;;
14094;SDS011;18096;48.142;16.290;2022-07-23T12:58:41;2.80;;;2.60;;
14094;SDS011;18096;48.142;16.290;2022-07-23T13:01:08;2.00;;;1.90;;
14094;SDS011;18096;48.142;16.290;2022-07-23T13:06:37;1.90;;;1.70;;
14094;SDS011;18096;48.142;16.290;2022-07-23T13:09:05;1.95;;;1.85;;
14094;SDS011;18096;48.142;16.290;2022-07-23T13:11:32;2.10;;;2.00;;
14094;SDS011;18096;48.142;16.290;2022-07-23T13:13:59;1.40;;;1.40;;
14094;SDS011;18096;48.142;16.290;2022-07-23T13:16:25;2.95;;;1.85;;
14094;SDS011;18096;48.142;16.290;2022-07-23T13:18:54;2.10;;;2.00;;
14094;SDS011;18096;48.142;16.290;2022-07-23T13:21:21;1.95;;;1.85;;
14094;SDS011;18096;48.142;16.290;2022-07-23T13:23:47;1.73;;;1.63;;
14094;SDS011;18096;48.142;16.290;2022-07-23T13:26:13;3.80;;;1.80;;
14094;SDS011;18096;48.142;16.290;2022-07-23T13:28:39;5.80;;;2.00;;
14094;SDS011;18096;48.142;16.290;2022-07-23T13:31:05;1.73;;;1.63;;
14094;SDS011;18096;48.142;16.290;2022-07-23T13:33:31;1.97;;;1.77;;
14094;SDS011;18096;48.142;16.290;2022-07-23T13:35:57;1.65;;;1.55;;
14094;SDS011;18096;48.142;16.290;2022-07-23T13:38:22;1.33;;;1.33;;
14094;SDS011;18096;48.142;16.290;2022-07-23T13:40:49;1.50;;;1.40;;
14094;SDS011;18096;48.142;16.290;2022-07-23T13:43:17;1.30;;;1.30;;
14094;SDS011;18096;48.142;16.290;2022-07-23T13:45:44;1.40;;;1.30;;
14094;SDS011;18096;48.142;16.290;2022-07-23T13:48:11;1.50;;;1.40;;
14094;SDS011;18096;48.142;16.290;2022-07-23T13:50:38;1.55;;;1.45;;
14094;SDS011;18096;48.142;16.290;2022-07-23T13:53:05;1.23;;;1.23;;
14094;SDS011;18096;48.142;16.290;2022-07-23T13:55:34;1.75;;;1.42;;
14094;SDS011;18096;48.142;16.290;2022-07-23T13:58:00;1.45;;;1.35;;
14094;SDS011;18096;48.142;16.290;2022-07-23T14:00:26;1.30;;;1.30;;
14094;SDS011;18096;48.142;16.290;2022-07-23T14:02:55;1.80;;;1.70;;
14094;SDS011;18096;48.142;16.290;2022-07-23T14:05:21;1.90;;;1.80;;
14094;SDS011;18096;48.142;16.290;2022-07-23T14:07:46;1.50;;;1.40;;
14094;SDS011;18096;48.142;16.290;2022-07-23T14:10:14;1.83;;;1.73;;
14094;SDS011;18096;48.142;16.290;2022-07-23T14:12:41;2.10;;;2.00;;
14094;SDS011;18096;48.142;16.290;2022-07-23T14:15:07;1.87;;;1.83;;
14094;SDS011;18096;48.142;16.290;2022-07-23T14:17:33;2.65;;;1.50;;
14094;SDS011;18096;48.142;16.290;2022-07-23T14:20:04;1.95;;;1.80;;
14094;SDS011;18096;48.142;16.290;2022-07-23T14:22:31;2.22;;;2.03;;
14094;SDS011;18096;48.142;16.290;2022-07-23T14:24:57;2.80;;;2.10;;
14094;SDS011;18096;48.142;16.290;2022-07-23T14:27:23;3.30;;;2.00;;
14094;SDS011;18096;48.142;16.290;2022-07-23T14:29:50;2.13;;;2.03;;
14094;SDS011;18096;48.142;16.290;2022-07-23T14:32:15;7.10;;;2.30;;
14094;SDS011;18096;48.142;16.290;2022-07-23T14:34:41;3.40;;;1.92;;
14094;SDS011;18096;48.142;16.290;2022-07-23T14:37:07;2.20;;;2.00;;
14094;SDS011;18096;48.142;16.290;2022-07-23T14:39:34;1.75;;;1.65;;
14094;SDS011;18096;48.142;16.290;2022-07-23T14:41:59;2.00;;;1.90;;
14094;SDS011;18096;48.142;16.290;2022-07-23T14:44:26;1.90;;;1.80;;
14094;SDS011;18096;48.142;16.290;2022-07-23T14:46:52;1.93;;;1.83;;
14094;SDS011;18096;48.142;16.290;2022-07-23T14:49:18;3.20;;;1.92;;
14094;SDS011;18096;48.142;16.290;2022-07-23T14:51:43;2.03;;;1.80;;
14094;SDS011;18096;48.142;16.290;2022-07-23T14:54:09;1.70;;;1.65;;
14094;SDS011;18096;48.142;16.290;2022-07-23T14:56:35;2.30;;;2.20;;
14094;SDS011;18096;48.142;16.290;2022-07-23T14:59:01;2.55;;;2.08;;
14094;SDS011;18096;48.142;16.290;2022-07-23T15:01:31;3.33;;;2.10;;
14094;SDS011;18096;48.142;16.290;2022-07-23T15:03:56;2.20;;;2.03;;
14094;SDS011;18096;48.142;16.290;2022-07-23T15:06:22;2.35;;;2.17;;
14094;SDS011;18096;48.142;16.290;2022-07-23T15:08:48;2.33;;;2.22;;
14094;SDS011;18096;48.142;16.290;2022-07-23T15:11:14;2.53;;;2.37;;
14094;SDS011;18096;48.142;16.290;2022-07-23T15:13:39;2.15;;;2.05;;
14094;SDS011;18096;48.142;16.290;2022-07-23T15:16:05;5.20;;;2.30;;
14094;SDS011;18096;48.142;16.290;2022-07-23T15:18:31;2.20;;;2.00;;
14094;SDS011;18096;48.142;16.290;2022-07-23T15:20:57;2.60;;;2.30;;
14094;SDS011;18096;48.142;16.290;2022-07-23T15:23:23;2.38;;;2.17;;